Ketchikan International Airport Ketchikan US
ICAO: PAKT
IATA: KTN
Category: Medium
Scheduled Services:

Elevation: 89 ft
TransAlt. 18000 ft.

Airport Communications:
ATIS:119.9
ANCHORAGE CNTR:118.5
CTAF:123.6
RDO:123.6
UNICOM:122.95

PAKT Zoom In..

Runways:

(A) RW 11 length 7500 ft width 150 ft
ILS 109.30 / hdg 115

(B) RW 29 length 7500 ft width 150 ft
---- / hdg 295

Location; PAKT
Day. 22 / Time. 00.53 Zulu
* Altimeter: 30.24
* Temperature: 08° c. 46.4°f.
* Wind from: PAK° Speed T kn.
Dewpoint: 04° c.
Visibility: 10 Statute Miles.
Clouds: Few 2500 ft.
Clouds: Broken 4100 ft.

PAKT 220053Z 14013KT 10SM FEW025 BKN041 08/04 A3024 RMK AO2 SLP241 HARBOR WIND 14015KT T00780039


Wind From PAK°
Speed T kn.

  YouTube Music Video
 
jpsmedia.com for Web Design  worldairports.se 2018   terms of use